No1 Tokuyama — JK5318 — position and weather

sailwx.info

Track history (hours):
 
Tides and Currents Weather Stations Pressure Air Temp Water Temp Dewpoint Dewpoint Depression Visibility Wind Speed Wind Dir Waves Ship Positions

No1 Tokuyama

Last reported at 2015-May-19 06:28 UTC. Time now 2015-May-29 02:05 UTC.
Position N 34°34' E 134°51'.
Warning: this ship's position is 9 days out of date.

Length 110 m; draft 5.4 m.

Type: Cargo ship. MMSI: 431400487.

Date/timePositionNaut miles runAvg speedWind from/ knotsBaromVisibWave heightAir tempDewpointWater temp
2015-May-19 06:28N 34°34' E 134°51'9 9.9
2015-May-19 05:32N 34°37' E 135°01'1111.0
2015-May-19 04:32N 34°36' E 135°14'1010.4
2015-May-19 03:33N 34°39' E 135°27'0 0.1
2015-May-19 02:33N 34°39' E 135°27'0 0.0
2015-May-19 01:33N 34°39' E 135°27'0 0.0
2015-May-19 00:33N 34°39' E 135°27'0 0.0
2015-May-18 23:33N 34°39' E 135°27'0 0.0
2015-May-18 22:33N 34°39' E 135°27'0 0.0
2015-May-18 21:33N 34°39' E 135°27'0 0.0
2015-May-18 20:33N 34°39' E 135°27'0 0.0
2015-May-18 19:33N 34°39' E 135°27'0 0.0
2015-May-18 18:33N 34°39' E 135°27'0 0.0
2015-May-18 17:33N 34°39' E 135°27'0 0.0
2015-May-18 16:21N 34°39' E 135°27'0 0.0
2015-May-18 15:33N 34°39' E 135°27'0 0.0
2015-May-18 14:33N 34°39' E 135°27'0 0.0
2015-May-18 13:33N 34°39' E 135°27'0 0.0
2015-May-18 12:27N 34°39' E 135°27'0 0.0
2015-May-18 11:33N 34°39' E 135°27'0 0.0
2015-May-18 10:33N 34°39' E 135°27'0 0.0
2015-May-18 09:27N 34°39' E 135°27'0 0.0
2015-May-18 08:33N 34°39' E 135°27'0 0.0
2015-May-18 07:33N 34°39' E 135°27'0 0.0
2015-May-18 06:21N 34°39' E 135°27'0 0.0
2015-May-18 05:33N 34°39' E 135°27'0 0.0
2015-May-18 04:31N 34°39' E 135°27'2 2.4
2015-May-18 03:33N 34°38' E 135°24'10 9.7
2015-May-18 02:32N 34°29' E 135°22'0 0.2
2015-May-18 01:22N 34°28' E 135°22'0 0.0
2015-May-18 00:28N 34°28' E 135°22'0 0.0
2015-May-17 23:16N 34°28' E 135°22'1 1.7
2015-May-17 22:33N 34°30' E 135°21'2 1.5
2015-May-17 21:23N 34°31' E 135°20'0 0.0
2015-May-17 20:23N 34°31' E 135°20'0 0.0
2015-May-17 19:17N 34°31' E 135°20'0 0.0
2015-May-17 18:29N 34°31' E 135°20'0 0.0
2015-May-17 17:23N 34°31' E 135°20'0 0.0
2015-May-17 16:29N 34°31' E 135°20'0 0.0
2015-May-17 15:11N 34°31' E 135°20'0 0.1
2015-May-17 14:17N 34°31' E 135°20'0 0.0
2015-May-17 13:29N 34°31' E 135°20'0 0.0
2015-May-17 12:33N 34°31' E 135°20'7 7.3
2015-May-17 11:33N 34°32' E 135°11'10 9.7
2015-May-17 10:33N 34°37' E 135°01'10 8.5
2015-May-17 09:26N 34°34' E 134°50'26 0.5
2015-May-15 08:33N 34°07' E 134°45'22411.1
2015-May-14 12:22N 34°48' E 139°13'911.4
2015-May-14 11:33N 34°53' E 139°23'1111.6
2015-May-14 10:34N 34°60' E 139°33'1312.5
2015-May-14 09:33N 35°09' E 139°44'1111.3
2015-May-14 08:33N 35°20' E 139°43'1111.0
2015-May-14 07:33N 35°30' E 139°46'2 1.9
2015-May-14 06:32N 35°30' E 139°44'0 0.0
2015-May-14 05:32N 35°30' E 139°44'0 0.0
2015-May-14 04:32N 35°30' E 139°44'0 0.0
2015-May-14 03:32N 35°30' E 139°44'0 0.0
2015-May-14 02:32N 35°30' E 139°44'0 0.0
2015-May-14 01:32N 35°30' E 139°44'0 0.0
2015-May-14 00:32N 35°30' E 139°44'0 0.0
2015-May-13 23:29N 35°30' E 139°44'2 2.6
2015-May-13 22:33N 35°28' E 139°42'7 7.2
2015-May-13 21:34N 35°22' E 139°47'0 0.1
2015-May-13 20:26N 35°22' E 139°47'0 0.0
2015-May-13 19:26N 35°22' E 139°48'0 0.0
2015-May-13 18:32N 35°22' E 139°48'0 0.0
2015-May-13 17:32N 35°22' E 139°48'0 0.0
2015-May-13 16:32N 35°22' E 139°48'0 0.0
2015-May-13 15:32N 35°22' E 139°48'0 0.0
2015-May-13 14:32N 35°22' E 139°48'0 0.0
2015-May-13 13:32N 35°22' E 139°48'0 0.0
2015-May-13 12:32N 35°22' E 139°48'0 0.0
2015-May-13 11:33N 35°22' E 139°48'0 0.0
2015-May-13 10:33N 35°22' E 139°48'0 0.1
2015-May-13 09:33N 35°22' E 139°48'0 0.0
2015-May-13 08:33N 35°22' E 139°48'0 0.1
2015-May-13 07:33N 35°22' E 139°48'0 0.0
2015-May-13 06:32N 35°22' E 139°48'0 0.1
2015-May-13 05:33N 35°22' E 139°48'0 0.0
2015-May-13 04:33N 35°22' E 139°48'0 0.1
2015-May-13 03:33N 35°22' E 139°48'0 0.0
2015-May-13 02:33N 35°22' E 139°48'0 0.0
2015-May-13 01:33N 35°22' E 139°48'0 0.0
2015-May-13 00:33N 35°22' E 139°48'0 0.0
2015-May-12 23:33N 35°22' E 139°48'0 0.0
2015-May-12 22:32N 35°22' E 139°48'0 0.0
2015-May-12 21:33N 35°22' E 139°48'0 0.0
2015-May-12 20:32N 35°22' E 139°48'0 0.0
2015-May-12 19:32N 35°22' E 139°48'0 0.0
2015-May-12 18:33N 35°22' E 139°48'0 0.0
2015-May-12 17:33N 35°22' E 139°48'0 0.0
2015-May-12 16:33N 35°22' E 139°48'0 0.0
2015-May-12 15:33N 35°22' E 139°48'0 0.0
2015-May-12 14:33N 35°22' E 139°48'0 0.0
2015-May-12 13:32N 35°22' E 139°48'0 0.0
2015-May-12 12:32N 35°22' E 139°48'0 0.0
2015-May-12 11:29N 35°22' E 139°48'0 0.0
2015-May-12 10:32N 35°22' E 139°48'0 0.0
2015-May-12 09:31N 35°22' E 139°48'0 0.0
2015-May-12 08:33N 35°22' E 139°48'0 0.0
2015-May-12 07:33N 35°22' E 139°48'0 0.0
2015-May-12 06:33N 35°22' E 139°48'0 0.0
2015-May-12 05:33N 35°22' E 139°48'0 0.0
2015-May-12 04:32N 35°22' E 139°48'0 0.1
2015-May-12 03:33N 35°22' E 139°48'0 0.0
2015-May-12 02:34N 35°22' E 139°48'0 0.0
2015-May-12 01:32N 35°22' E 139°48'0 0.0
2015-May-12 00:33N 35°22' E 139°48'0 0.0
2015-May-11 23:25N 35°22' E 139°48'0 0.0
2015-May-11 22:31N 35°22' E 139°48'0 0.0
2015-May-11 21:31N 35°22' E 139°48'0 0.0
2015-May-11 20:31N 35°22' E 139°48'0 0.0
2015-May-11 19:31N 35°22' E 139°48'0 0.0
2015-May-11 18:31N 35°22' E 139°48'0 0.0
2015-May-11 17:31N 35°22' E 139°48'0 0.0
2015-May-11 16:31N 35°22' E 139°48'2 2.5
2015-May-11 15:32N 35°22' E 139°51'0 0.0
2015-May-11 14:32N 35°22' E 139°51'0 0.0
2015-May-11 13:23N 35°22' E 139°51'0 0.0
2015-May-11 12:32N 35°22' E 139°51'0 0.0
2015-May-11 11:32N 35°22' E 139°51'0 0.0
2015-May-11 10:29N 35°22' E 139°51'0 0.0
2015-May-11 09:32N 35°22' E 139°51'0 0.0
2015-May-11 08:29N 35°22' E 139°51'0 0.0
2015-May-11 07:29N 35°22' E 139°51'0 0.0
2015-May-11 06:32N 35°22' E 139°51'0 0.0
2015-May-11 05:32N 35°22' E 139°51'0 0.0
2015-May-11 04:32N 35°22' E 139°51'0 0.0
2015-May-11 03:32N 35°22' E 139°51'0 0.0
2015-May-11 02:32N 35°22' E 139°51'0 0.0
2015-May-11 01:29N 35°22' E 139°51'0 0.5
2015-May-11 00:33N 35°22' E 139°50'1 0.7
2015-May-10 23:33N 35°22' E 139°49'0 0.0
2015-May-10 22:33N 35°22' E 139°49'0 0.0
2015-May-10 21:33N 35°22' E 139°49'0 0.0
2015-May-10 20:33N 35°22' E 139°49'0 0.0
2015-May-10 19:33N 35°22' E 139°49'0 0.0
2015-May-10 18:33N 35°22' E 139°49'0 0.0
2015-May-10 17:33N 35°22' E 139°49'0 0.1
2015-May-10 16:33N 35°22' E 139°49'0 0.0
2015-May-10 15:33N 35°22' E 139°49'0 0.0
2015-May-10 14:33N 35°22' E 139°49'0 0.0
2015-May-10 13:33N 35°22' E 139°49'0 0.0
2015-May-10 12:33N 35°22' E 139°49'0 0.0
2015-May-10 11:33N 35°22' E 139°49'0 0.0
2015-May-10 10:33N 35°22' E 139°49'0 0.0
2015-May-10 09:33N 35°22' E 139°49'0 0.1
2015-May-10 08:33N 35°22' E 139°49'7 7.5
2015-May-10 07:33N 35°29' E 139°51'6 5.8
2015-May-10 06:33N 35°27' E 139°58'0 0.0
2015-May-10 05:31N 35°27' E 139°58'0 0.0
2015-May-10 04:19N 35°27' E 139°58'0 0.0
2015-May-10 03:31N 35°27' E 139°58'0 0.0
2015-May-10 02:31N 35°27' E 139°58'0 0.0
2015-May-10 01:31N 35°27' E 139°58'0 0.0
2015-May-10 00:31N 35°27' E 139°58'0 0.0
2015-May-09 23:31N 35°27' E 139°58'1 1.0
2015-May-09 22:33N 35°28' E 139°58'2 1.6
2015-May-09 21:32N 35°29' E 139°56'0 0.0
2015-May-09 20:32N 35°29' E 139°56'0 0.0
2015-May-09 19:32N 35°29' E 139°56'0 0.0
2015-May-09 18:29N 35°29' E 139°56'0 0.0
2015-May-09 17:32N 35°29' E 139°56'0 0.0
2015-May-09 16:29N 35°29' E 139°56'0 0.0
2015-May-09 15:32N 35°29' E 139°56'0 0.0
2015-May-09 14:32N 35°29' E 139°56'0 0.0
2015-May-09 13:32N 35°29' E 139°56'0 0.0
2015-May-09 12:32N 35°29' E 139°56'0 0.0
2015-May-09 11:29N 35°29' E 139°56'0 0.0
2015-May-09 10:17N 35°29' E 139°56'0 0.0
2015-May-09 09:29N 35°29' E 139°56'6 6.6
2015-May-09 08:33N 35°27' E 139°49'7 6.4
2015-May-09 07:31N 35°26' E 139°41'0 0.0
2015-May-09 06:28N 35°26' E 139°41'  
Track history (hours):
 
Tides and Currents Weather Stations Pressure Air Temp Water Temp Dewpoint Dewpoint Depression Visibility Wind Speed Wind Dir Waves Ship Positions

No1 Tokuyama

Last reported at 2015-May-19 06:28 UTC. Time now 2015-May-29 02:05 UTC.
Position N 34°34' E 134°51'.
Warning: this ship's position is 9 days out of date.

Length 110 m; draft 5.4 m.

Type: Cargo ship. MMSI: 431400487.

Date/timePositionNaut miles runAvg speedWind from/ knotsBaromVisibWave heightAir tempDewpointWater temp
2015-May-19 06:28N 34°34' E 134°51'9 9.9
2015-May-19 05:32N 34°37' E 135°01'1111.0
2015-May-19 04:32N 34°36' E 135°14'1010.4
2015-May-19 03:33N 34°39' E 135°27'0 0.1
2015-May-19 02:33N 34°39' E 135°27'0 0.0
2015-May-19 01:33N 34°39' E 135°27'0 0.0
2015-May-19 00:33N 34°39' E 135°27'0 0.0
2015-May-18 23:33N 34°39' E 135°27'0 0.0
2015-May-18 22:33N 34°39' E 135°27'0 0.0
2015-May-18 21:33N 34°39' E 135°27'0 0.0
2015-May-18 20:33N 34°39' E 135°27'0 0.0
2015-May-18 19:33N 34°39' E 135°27'0 0.0
2015-May-18 18:33N 34°39' E 135°27'0 0.0
2015-May-18 17:33N 34°39' E 135°27'0 0.0
2015-May-18 16:21N 34°39' E 135°27'0 0.0
2015-May-18 15:33N 34°39' E 135°27'0 0.0
2015-May-18 14:33N 34°39' E 135°27'0 0.0
2015-May-18 13:33N 34°39' E 135°27'0 0.0
2015-May-18 12:27N 34°39' E 135°27'0 0.0
2015-May-18 11:33N 34°39' E 135°27'0 0.0
2015-May-18 10:33N 34°39' E 135°27'0 0.0
2015-May-18 09:27N 34°39' E 135°27'0 0.0
2015-May-18 08:33N 34°39' E 135°27'0 0.0
2015-May-18 07:33N 34°39' E 135°27'0 0.0
2015-May-18 06:21N 34°39' E 135°27'0 0.0
2015-May-18 05:33N 34°39' E 135°27'0 0.0
2015-May-18 04:31N 34°39' E 135°27'2 2.4
2015-May-18 03:33N 34°38' E 135°24'10 9.7
2015-May-18 02:32N 34°29' E 135°22'0 0.2
2015-May-18 01:22N 34°28' E 135°22'0 0.0
2015-May-18 00:28N 34°28' E 135°22'0 0.0
2015-May-17 23:16N 34°28' E 135°22'1 1.7
2015-May-17 22:33N 34°30' E 135°21'2 1.5
2015-May-17 21:23N 34°31' E 135°20'0 0.0
2015-May-17 20:23N 34°31' E 135°20'0 0.0
2015-May-17 19:17N 34°31' E 135°20'0 0.0
2015-May-17 18:29N 34°31' E 135°20'0 0.0
2015-May-17 17:23N 34°31' E 135°20'0 0.0
2015-May-17 16:29N 34°31' E 135°20'0 0.0
2015-May-17 15:11N 34°31' E 135°20'0 0.1
2015-May-17 14:17N 34°31' E 135°20'0 0.0
2015-May-17 13:29N 34°31' E 135°20'0 0.0
2015-May-17 12:33N 34°31' E 135°20'7 7.3
2015-May-17 11:33N 34°32' E 135°11'10 9.7
2015-May-17 10:33N 34°37' E 135°01'10 8.5
2015-May-17 09:26N 34°34' E 134°50'26 0.5
2015-May-15 08:33N 34°07' E 134°45'22411.1
2015-May-14 12:22N 34°48' E 139°13'911.4
2015-May-14 11:33N 34°53' E 139°23'1111.6
2015-May-14 10:34N 34°60' E 139°33'1312.5
2015-May-14 09:33N 35°09' E 139°44'1111.3
2015-May-14 08:33N 35°20' E 139°43'1111.0
2015-May-14 07:33N 35°30' E 139°46'2 1.9
2015-May-14 06:32N 35°30' E 139°44'0 0.0
2015-May-14 05:32N 35°30' E 139°44'0 0.0
2015-May-14 04:32N 35°30' E 139°44'0 0.0
2015-May-14 03:32N 35°30' E 139°44'0 0.0
2015-May-14 02:32N 35°30' E 139°44'0 0.0
2015-May-14 01:32N 35°30' E 139°44'0 0.0
2015-May-14 00:32N 35°30' E 139°44'0 0.0
2015-May-13 23:29N 35°30' E 139°44'2 2.6
2015-May-13 22:33N 35°28' E 139°42'7 7.2
2015-May-13 21:34N 35°22' E 139°47'0 0.1
2015-May-13 20:26N 35°22' E 139°47'0 0.0
2015-May-13 19:26N 35°22' E 139°48'0 0.0
2015-May-13 18:32N 35°22' E 139°48'0 0.0
2015-May-13 17:32N 35°22' E 139°48'0 0.0
2015-May-13 16:32N 35°22' E 139°48'0 0.0
2015-May-13 15:32N 35°22' E 139°48'0 0.0
2015-May-13 14:32N 35°22' E 139°48'0 0.0
2015-May-13 13:32N 35°22' E 139°48'0 0.0
2015-May-13 12:32N 35°22' E 139°48'0 0.0
2015-May-13 11:33N 35°22' E 139°48'0 0.0
2015-May-13 10:33N 35°22' E 139°48'0 0.1
2015-May-13 09:33N 35°22' E 139°48'0 0.0
2015-May-13 08:33N 35°22' E 139°48'0 0.1
2015-May-13 07:33N 35°22' E 139°48'0 0.0
2015-May-13 06:32N 35°22' E 139°48'0 0.1
2015-May-13 05:33N 35°22' E 139°48'0 0.0
2015-May-13 04:33N 35°22' E 139°48'0 0.1
2015-May-13 03:33N 35°22' E 139°48'0 0.0
2015-May-13 02:33N 35°22' E 139°48'0 0.0
2015-May-13 01:33N 35°22' E 139°48'0 0.0
2015-May-13 00:33N 35°22' E 139°48'0 0.0
2015-May-12 23:33N 35°22' E 139°48'0 0.0
2015-May-12 22:32N 35°22' E 139°48'0 0.0
2015-May-12 21:33N 35°22' E 139°48'0 0.0
2015-May-12 20:32N 35°22' E 139°48'0 0.0
2015-May-12 19:32N 35°22' E 139°48'0 0.0
2015-May-12 18:33N 35°22' E 139°48'0 0.0
2015-May-12 17:33N 35°22' E 139°48'0 0.0
2015-May-12 16:33N 35°22' E 139°48'0 0.0
2015-May-12 15:33N 35°22' E 139°48'0 0.0
2015-May-12 14:33N 35°22' E 139°48'0 0.0
2015-May-12 13:32N 35°22' E 139°48'0 0.0
2015-May-12 12:32N 35°22' E 139°48'0 0.0
2015-May-12 11:29N 35°22' E 139°48'0 0.0
2015-May-12 10:32N 35°22' E 139°48'0 0.0
2015-May-12 09:31N 35°22' E 139°48'0 0.0
2015-May-12 08:33N 35°22' E 139°48'0 0.0
2015-May-12 07:33N 35°22' E 139°48'0 0.0
2015-May-12 06:33N 35°22' E 139°48'0 0.0
2015-May-12 05:33N 35°22' E 139°48'0 0.0
2015-May-12 04:32N 35°22' E 139°48'0 0.1
2015-May-12 03:33N 35°22' E 139°48'0 0.0
2015-May-12 02:34N 35°22' E 139°48'0 0.0
2015-May-12 01:32N 35°22' E 139°48'0 0.0
2015-May-12 00:33N 35°22' E 139°48'0 0.0
2015-May-11 23:25N 35°22' E 139°48'0 0.0
2015-May-11 22:31N 35°22' E 139°48'0 0.0
2015-May-11 21:31N 35°22' E 139°48'0 0.0
2015-May-11 20:31N 35°22' E 139°48'0 0.0
2015-May-11 19:31N 35°22' E 139°48'0 0.0
2015-May-11 18:31N 35°22' E 139°48'0 0.0
2015-May-11 17:31N 35°22' E 139°48'0 0.0
2015-May-11 16:31N 35°22' E 139°48'2 2.5
2015-May-11 15:32N 35°22' E 139°51'0 0.0
2015-May-11 14:32N 35°22' E 139°51'0 0.0
2015-May-11 13:23N 35°22' E 139°51'0 0.0
2015-May-11 12:32N 35°22' E 139°51'0 0.0
2015-May-11 11:32N 35°22' E 139°51'0 0.0
2015-May-11 10:29N 35°22' E 139°51'0 0.0
2015-May-11 09:32N 35°22' E 139°51'0 0.0
2015-May-11 08:29N 35°22' E 139°51'0 0.0
2015-May-11 07:29N 35°22' E 139°51'0 0.0
2015-May-11 06:32N 35°22' E 139°51'0 0.0
2015-May-11 05:32N 35°22' E 139°51'0 0.0
2015-May-11 04:32N 35°22' E 139°51'0 0.0
2015-May-11 03:32N 35°22' E 139°51'0 0.0
2015-May-11 02:32N 35°22' E 139°51'0 0.0
2015-May-11 01:29N 35°22' E 139°51'0 0.5
2015-May-11 00:33N 35°22' E 139°50'1 0.7
2015-May-10 23:33N 35°22' E 139°49'0 0.0
2015-May-10 22:33N 35°22' E 139°49'0 0.0
2015-May-10 21:33N 35°22' E 139°49'0 0.0
2015-May-10 20:33N 35°22' E 139°49'0 0.0
2015-May-10 19:33N 35°22' E 139°49'0 0.0
2015-May-10 18:33N 35°22' E 139°49'0 0.0
2015-May-10 17:33N 35°22' E 139°49'0 0.1
2015-May-10 16:33N 35°22' E 139°49'0 0.0
2015-May-10 15:33N 35°22' E 139°49'0 0.0
2015-May-10 14:33N 35°22' E 139°49'0 0.0
2015-May-10 13:33N 35°22' E 139°49'0 0.0
2015-May-10 12:33N 35°22' E 139°49'0 0.0
2015-May-10 11:33N 35°22' E 139°49'0 0.0
2015-May-10 10:33N 35°22' E 139°49'0 0.0
2015-May-10 09:33N 35°22' E 139°49'0 0.1
2015-May-10 08:33N 35°22' E 139°49'7 7.5
2015-May-10 07:33N 35°29' E 139°51'6 5.8
2015-May-10 06:33N 35°27' E 139°58'0 0.0
2015-May-10 05:31N 35°27' E 139°58'0 0.0
2015-May-10 04:19N 35°27' E 139°58'0 0.0
2015-May-10 03:31N 35°27' E 139°58'0 0.0
2015-May-10 02:31N 35°27' E 139°58'0 0.0
2015-May-10 01:31N 35°27' E 139°58'0 0.0
2015-May-10 00:31N 35°27' E 139°58'0 0.0
2015-May-09 23:31N 35°27' E 139°58'1 1.0
2015-May-09 22:33N 35°28' E 139°58'2 1.6
2015-May-09 21:32N 35°29' E 139°56'0 0.0
2015-May-09 20:32N 35°29' E 139°56'0 0.0
2015-May-09 19:32N 35°29' E 139°56'0 0.0
2015-May-09 18:29N 35°29' E 139°56'0 0.0
2015-May-09 17:32N 35°29' E 139°56'0 0.0
2015-May-09 16:29N 35°29' E 139°56'0 0.0
2015-May-09 15:32N 35°29' E 139°56'0 0.0
2015-May-09 14:32N 35°29' E 139°56'0 0.0
2015-May-09 13:32N 35°29' E 139°56'0 0.0
2015-May-09 12:32N 35°29' E 139°56'0 0.0
2015-May-09 11:29N 35°29' E 139°56'0 0.0
2015-May-09 10:17N 35°29' E 139°56'0 0.0
2015-May-09 09:29N 35°29' E 139°56'6 6.6
2015-May-09 08:33N 35°27' E 139°49'7 6.4
2015-May-09 07:31N 35°26' E 139°41'0 0.0
2015-May-09 06:28N 35°26' E 139°41'  

Dump ship's entire track history